N378TP EPWA-LWSK
Flight info
| Callsign | N378TP |
|---|---|
| Flight time | 1h 43m |
| Altitude | 34000 |
| Route | EVINA M66 BABKO DCT LITKU DCT PARAK DCT BGD DCT REDVA UL616 KOGAT |
| Aircraft | E190/M-SDE1E2E3FGHIJ3J4J7P2RWXY/LB1D1G1 |
Departure
| Time | 2026-05-08 18:12 |
|---|---|
| Airport | Warsaw Chopin Airport (EPWA) |
Arrival
| Time | 2026-05-08 19:55 |
|---|---|
| Airport | Skopje International Airport (LWSK) |
| Time | Latitude | Longitude | Altitude | Speed | Heading |
|---|---|---|---|---|---|
| 2026-05-08 17:39 | 52.17971 | 20.96207 | 339 ft | 0 kts | 164° |
| 2026-05-08 17:59 | 52.17976 | 20.96205 | 339 ft | 2 kts | 164° |
| 2026-05-08 17:59 | 52.17990 | 20.96198 | 339 ft | 2 kts | 164° |
| 2026-05-08 17:59 | 52.18004 | 20.96191 | 339 ft | 1 kts | 178° |
| 2026-05-08 18:00 | 52.18017 | 20.96200 | 340 ft | 2 kts | 231° |
| 2026-05-08 18:00 | 52.18022 | 20.96223 | 340 ft | 0 kts | 258° |
| 2026-05-08 18:03 | 52.18021 | 20.96217 | 340 ft | 1 kts | 258° |
| 2026-05-08 18:03 | 52.18016 | 20.96184 | 340 ft | 4 kts | 257° |
| 2026-05-08 18:03 | 52.18007 | 20.96116 | 340 ft | 6 kts | 258° |
| 2026-05-08 18:04 | 52.17997 | 20.96046 | 342 ft | 5 kts | 256° |
| 2026-05-08 18:04 | 52.17987 | 20.96000 | 342 ft | 4 kts | 244° |
| 2026-05-08 18:04 | 52.17970 | 20.95949 | 343 ft | 6 kts | 232° |
| 2026-05-08 18:04 | 52.17921 | 20.95934 | 342 ft | 10 kts | 158° |
| 2026-05-08 18:05 | 52.17844 | 20.96001 | 340 ft | 12 kts | 152° |
| 2026-05-08 18:05 | 52.17777 | 20.96059 | 338 ft | 11 kts | 151° |
| 2026-05-08 18:05 | 52.17707 | 20.96120 | 337 ft | 11 kts | 150° |
| 2026-05-08 18:05 | 52.17632 | 20.96187 | 336 ft | 13 kts | 152° |
| 2026-05-08 18:06 | 52.17548 | 20.96261 | 334 ft | 14 kts | 153° |
| 2026-05-08 18:06 | 52.17452 | 20.96344 | 333 ft | 16 kts | 151° |
| 2026-05-08 18:06 | 52.17348 | 20.96437 | 334 ft | 17 kts | 152° |
| 2026-05-08 18:06 | 52.17234 | 20.96537 | 333 ft | 19 kts | 151° |
| 2026-05-08 18:07 | 52.17108 | 20.96645 | 332 ft | 21 kts | 152° |
| 2026-05-08 18:07 | 52.17018 | 20.96723 | 330 ft | 12 kts | 152° |
| 2026-05-08 18:07 | 52.16936 | 20.96795 | 329 ft | 14 kts | 151° |
| 2026-05-08 18:07 | 52.16844 | 20.96876 | 330 ft | 15 kts | 152° |
| 2026-05-08 18:08 | 52.16750 | 20.96958 | 332 ft | 15 kts | 151° |
| 2026-05-08 18:08 | 52.16691 | 20.97011 | 333 ft | 9 kts | 151° |
| 2026-05-08 18:08 | 52.16653 | 20.97089 | 334 ft | 8 kts | 117° |
| 2026-05-08 18:08 | 52.16627 | 20.97181 | 336 ft | 9 kts | 113° |
| 2026-05-08 18:09 | 52.16595 | 20.97298 | 336 ft | 13 kts | 116° |
| 2026-05-08 18:09 | 52.16581 | 20.97346 | 336 ft | 3 kts | 116° |
| 2026-05-08 18:09 | 52.16563 | 20.97409 | 336 ft | 10 kts | 114° |
| 2026-05-08 18:09 | 52.16526 | 20.97543 | 336 ft | 14 kts | 114° |
| 2026-05-08 18:10 | 52.16487 | 20.97681 | 336 ft | 9 kts | 114° |
| 2026-05-08 18:10 | 52.16459 | 20.97781 | 335 ft | 3 kts | 114° |
| 2026-05-08 18:10 | 52.16435 | 20.97813 | 335 ft | 7 kts | 175° |
| 2026-05-08 18:10 | 52.16404 | 20.97798 | 334 ft | 1 kts | 204° |
| 2026-05-08 18:11 | 52.16369 | 20.97772 | 333 ft | 10 kts | 205° |
| 2026-05-08 18:11 | 52.16312 | 20.97660 | 333 ft | 17 kts | 285° |
| 2026-05-08 18:11 | 52.16436 | 20.97208 | 336 ft | 74 kts | 294° |
| 2026-05-08 18:11 | 52.16753 | 20.96087 | 341 ft | 148 kts | 298° |
| 2026-05-08 18:12 | 52.17214 | 20.94419 | 906 ft | 176 kts | 295° |
| 2026-05-08 18:12 | 52.17678 | 20.92750 | 1466 ft | 149 kts | 296° |
| 2026-05-08 18:12 | 52.17942 | 20.91119 | 1762 ft | 172 kts | 267° |
| 2026-05-08 18:12 | 52.17744 | 20.89035 | 2242 ft | 205 kts | 262° |
| 2026-05-08 18:13 | 52.17480 | 20.86651 | 3061 ft | 221 kts | 261° |
| 2026-05-08 18:13 | 52.16829 | 20.84396 | 3933 ft | 236 kts | 226° |
| 2026-05-08 18:13 | 52.15325 | 20.83126 | 4569 ft | 264 kts | 191° |
| 2026-05-08 18:13 | 52.13485 | 20.82523 | 5403 ft | 281 kts | 195° |
| 2026-05-08 18:14 | 52.11620 | 20.81628 | 6457 ft | 287 kts | 199° |
| 2026-05-08 18:14 | 52.09736 | 20.80564 | 7615 ft | 288 kts | 201° |
| 2026-05-08 18:14 | 52.07897 | 20.79451 | 8688 ft | 288 kts | 202° |
| 2026-05-08 18:14 | 52.06052 | 20.78301 | 9678 ft | 290 kts | 202° |
| 2026-05-08 18:15 | 52.04158 | 20.77105 | 10617 ft | 294 kts | 202° |
| 2026-05-08 18:15 | 52.02249 | 20.75893 | 11415 ft | 302 kts | 203° |
| 2026-05-08 18:15 | 52.00268 | 20.74632 | 12102 ft | 313 kts | 203° |
| 2026-05-08 18:15 | 51.98219 | 20.73327 | 12781 ft | 324 kts | 204° |
| 2026-05-08 18:16 | 51.96118 | 20.71990 | 13548 ft | 330 kts | 203° |
| 2026-05-08 18:16 | 51.93968 | 20.70621 | 14364 ft | 334 kts | 203° |
| 2026-05-08 18:16 | 51.91816 | 20.69253 | 15174 ft | 338 kts | 202° |
| 2026-05-08 18:16 | 51.89621 | 20.67862 | 15971 ft | 342 kts | 202° |
| 2026-05-08 18:17 | 51.87414 | 20.66464 | 16779 ft | 346 kts | 202° |
| 2026-05-08 18:17 | 51.85197 | 20.65062 | 17632 ft | 347 kts | 203° |
| 2026-05-08 18:17 | 51.82932 | 20.63630 | 18505 ft | 349 kts | 204° |
| 2026-05-08 18:17 | 51.80708 | 20.62224 | 19342 ft | 350 kts | 205° |
| 2026-05-08 18:18 | 51.78441 | 20.60793 | 20124 ft | 351 kts | 205° |
| 2026-05-08 18:18 | 51.76177 | 20.59364 | 20842 ft | 356 kts | 205° |
| 2026-05-08 18:18 | 51.73869 | 20.57910 | 21617 ft | 361 kts | 205° |
| 2026-05-08 18:18 | 51.71516 | 20.56430 | 22612 ft | 365 kts | 206° |
| 2026-05-08 18:19 | 51.69142 | 20.54938 | 23584 ft | 369 kts | 206° |
| 2026-05-08 18:19 | 51.66803 | 20.53341 | 24360 ft | 368 kts | 212° |
| 2026-05-08 18:19 | 51.64472 | 20.51577 | 25099 ft | 374 kts | 207° |
| 2026-05-08 18:19 | 51.62024 | 20.50075 | 25801 ft | 379 kts | 205° |
| 2026-05-08 18:20 | 51.59556 | 20.48684 | 26471 ft | 384 kts | 204° |
| 2026-05-08 18:20 | 51.57016 | 20.47300 | 27133 ft | 388 kts | 204° |
| 2026-05-08 18:20 | 51.54440 | 20.45914 | 27770 ft | 392 kts | 204° |
| 2026-05-08 18:20 | 51.51865 | 20.44535 | 28398 ft | 396 kts | 204° |
| 2026-05-08 18:21 | 51.49270 | 20.43149 | 29001 ft | 400 kts | 204° |
| 2026-05-08 18:21 | 51.46605 | 20.41726 | 29621 ft | 403 kts | 204° |
| 2026-05-08 18:21 | 51.43966 | 20.40322 | 30216 ft | 406 kts | 204° |
| 2026-05-08 18:21 | 51.41266 | 20.38886 | 30799 ft | 409 kts | 204° |
| 2026-05-08 18:22 | 51.38560 | 20.37448 | 31285 ft | 413 kts | 204° |
| 2026-05-08 18:22 | 51.35829 | 20.36000 | 31765 ft | 416 kts | 204° |
| 2026-05-08 18:22 | 51.33075 | 20.34541 | 32256 ft | 419 kts | 203° |
| 2026-05-08 18:22 | 51.30312 | 20.33079 | 32795 ft | 419 kts | 202° |
| 2026-05-08 18:23 | 51.27564 | 20.31627 | 33406 ft | 417 kts | 202° |
| 2026-05-08 18:23 | 51.24828 | 20.30184 | 33931 ft | 411 kts | 202° |
| 2026-05-08 18:23 | 51.22161 | 20.28778 | 34083 ft | 406 kts | 203° |
| 2026-05-08 18:23 | 51.19506 | 20.27155 | 34125 ft | 414 kts | 210° |
| 2026-05-08 18:24 | 51.16838 | 20.25224 | 34121 ft | 428 kts | 205° |
| 2026-05-08 18:24 | 51.14009 | 20.23579 | 34138 ft | 440 kts | 203° |
| 2026-05-08 18:24 | 51.08181 | 20.20493 | 34118 ft | 441 kts | 202° |
| 2026-05-08 18:25 | 51.02363 | 20.17485 | 34117 ft | 440 kts | 202° |
| 2026-05-08 18:25 | 50.96570 | 20.14502 | 34126 ft | 439 kts | 202° |
| 2026-05-08 18:26 | 50.90816 | 20.11548 | 34129 ft | 438 kts | 202° |
| 2026-05-08 18:26 | 50.85019 | 20.08579 | 34127 ft | 437 kts | 202° |
| 2026-05-08 18:27 | 50.80219 | 20.06126 | 34122 ft | 437 kts | 202° |
| 2026-05-08 18:27 | 50.73470 | 20.02688 | 34123 ft | 436 kts | 203° |
| 2026-05-08 18:28 | 50.67704 | 19.99758 | 34118 ft | 436 kts | 203° |
| 2026-05-08 18:28 | 50.61966 | 19.96850 | 34115 ft | 437 kts | 203° |
| 2026-05-08 18:29 | 50.56196 | 19.93933 | 34122 ft | 435 kts | 203° |
| 2026-05-08 18:29 | 50.50419 | 19.91020 | 34113 ft | 435 kts | 202° |
| 2026-05-08 18:30 | 50.44685 | 19.88136 | 34106 ft | 435 kts | 203° |
| 2026-05-08 18:30 | 50.38950 | 19.85259 | 34112 ft | 435 kts | 202° |
| 2026-05-08 18:31 | 50.33167 | 19.82366 | 34121 ft | 435 kts | 203° |
| 2026-05-08 18:31 | 50.27427 | 19.79501 | 34124 ft | 434 kts | 203° |
| 2026-05-08 18:32 | 50.21738 | 19.76669 | 34116 ft | 433 kts | 203° |
| 2026-05-08 18:32 | 50.15993 | 19.73817 | 34122 ft | 432 kts | 203° |
| 2026-05-08 18:33 | 50.10302 | 19.70997 | 34129 ft | 431 kts | 203° |
| 2026-05-08 18:33 | 50.04620 | 19.68189 | 34128 ft | 431 kts | 203° |
| 2026-05-08 18:34 | 49.98923 | 19.65382 | 34118 ft | 431 kts | 203° |
| 2026-05-08 18:34 | 49.93280 | 19.62607 | 34109 ft | 429 kts | 203° |
| 2026-05-08 18:35 | 49.87653 | 19.59847 | 34107 ft | 427 kts | 203° |
| 2026-05-08 18:35 | 49.82013 | 19.57088 | 34100 ft | 427 kts | 203° |
| 2026-05-08 18:36 | 49.76353 | 19.54326 | 34102 ft | 426 kts | 204° |
| 2026-05-08 18:36 | 49.70673 | 19.51560 | 34094 ft | 425 kts | 203° |
| 2026-05-08 18:37 | 49.65052 | 19.48832 | 34096 ft | 424 kts | 203° |
| 2026-05-08 18:37 | 49.59207 | 19.47182 | 34097 ft | 436 kts | 187° |
| 2026-05-08 18:38 | 49.53104 | 19.47710 | 34090 ft | 441 kts | 183° |
| 2026-05-08 18:38 | 49.47024 | 19.48298 | 34085 ft | 441 kts | 183° |
| 2026-05-08 18:39 | 49.40929 | 19.48880 | 34085 ft | 440 kts | 184° |
| 2026-05-08 18:39 | 49.34882 | 19.49456 | 34092 ft | 438 kts | 184° |
| 2026-05-08 18:40 | 49.28777 | 19.50035 | 34089 ft | 437 kts | 184° |
| 2026-05-08 18:40 | 49.22742 | 19.50606 | 34083 ft | 439 kts | 184° |
| 2026-05-08 18:41 | 49.16686 | 19.51180 | 34084 ft | 436 kts | 184° |
| 2026-05-08 18:41 | 49.10652 | 19.51748 | 34083 ft | 434 kts | 184° |
| 2026-05-08 18:42 | 49.04623 | 19.52315 | 34076 ft | 435 kts | 184° |
| 2026-05-08 18:42 | 48.98631 | 19.52877 | 34072 ft | 434 kts | 184° |
| 2026-05-08 18:43 | 48.92631 | 19.53438 | 34068 ft | 433 kts | 184° |
| 2026-05-08 18:43 | 48.86603 | 19.54001 | 34073 ft | 436 kts | 184° |
| 2026-05-08 18:44 | 48.80594 | 19.54561 | 34071 ft | 432 kts | 184° |
| 2026-05-08 18:44 | 48.74559 | 19.55121 | 34075 ft | 434 kts | 183° |
| 2026-05-08 18:45 | 48.68558 | 19.55677 | 34072 ft | 435 kts | 184° |
| 2026-05-08 18:45 | 48.62536 | 19.56234 | 34072 ft | 432 kts | 183° |
| 2026-05-08 18:46 | 48.56597 | 19.56782 | 34064 ft | 432 kts | 183° |
| 2026-05-08 18:46 | 48.50581 | 19.57335 | 34066 ft | 431 kts | 183° |
| 2026-05-08 18:47 | 48.44647 | 19.57879 | 34058 ft | 433 kts | 183° |
| 2026-05-08 18:47 | 48.38640 | 19.58430 | 34050 ft | 432 kts | 183° |
| 2026-05-08 18:48 | 48.32690 | 19.58974 | 34049 ft | 431 kts | 183° |
| 2026-05-08 18:48 | 48.26719 | 19.59518 | 34041 ft | 431 kts | 183° |
| 2026-05-08 18:49 | 48.20703 | 19.60424 | 34049 ft | 436 kts | 177° |
| 2026-05-08 18:49 | 48.14743 | 19.61919 | 34037 ft | 437 kts | 177° |
| 2026-05-08 18:50 | 48.08796 | 19.63398 | 34035 ft | 436 kts | 177° |
| 2026-05-08 18:50 | 48.02802 | 19.64883 | 34035 ft | 437 kts | 177° |
| 2026-05-08 18:51 | 47.96854 | 19.66354 | 34032 ft | 436 kts | 176° |
| 2026-05-08 18:51 | 47.90889 | 19.67826 | 34028 ft | 436 kts | 176° |
| 2026-05-08 18:52 | 47.84913 | 19.69297 | 34032 ft | 436 kts | 176° |
| 2026-05-08 18:52 | 47.78963 | 19.70758 | 34031 ft | 434 kts | 176° |
| 2026-05-08 18:53 | 47.73024 | 19.72212 | 34031 ft | 434 kts | 176° |
| 2026-05-08 18:53 | 47.67045 | 19.73673 | 34028 ft | 437 kts | 176° |
| 2026-05-08 18:54 | 47.61041 | 19.75137 | 34032 ft | 436 kts | 176° |
| 2026-05-08 18:54 | 47.55084 | 19.76586 | 34030 ft | 436 kts | 176° |
| 2026-05-08 18:55 | 47.46109 | 19.78764 | 34019 ft | 436 kts | 176° |
| 2026-05-08 18:56 | 47.40139 | 19.80207 | 34021 ft | 437 kts | 176° |
| 2026-05-08 18:56 | 47.34147 | 19.81654 | 34020 ft | 437 kts | 176° |
| 2026-05-08 18:57 | 47.28178 | 19.83091 | 34017 ft | 435 kts | 175° |
| 2026-05-08 18:57 | 47.22210 | 19.84524 | 34015 ft | 436 kts | 175° |
| 2026-05-08 18:58 | 47.16198 | 19.85966 | 34016 ft | 436 kts | 175° |
| 2026-05-08 18:58 | 47.10227 | 19.87393 | 34017 ft | 438 kts | 175° |
| 2026-05-08 18:59 | 47.04192 | 19.88832 | 34015 ft | 439 kts | 175° |
| 2026-05-08 18:59 | 46.98174 | 19.90265 | 34011 ft | 438 kts | 175° |
| 2026-05-08 19:00 | 46.92161 | 19.91693 | 34013 ft | 439 kts | 175° |
| 2026-05-08 19:00 | 46.86188 | 19.93108 | 34014 ft | 438 kts | 175° |
| 2026-05-08 19:01 | 46.80166 | 19.94532 | 34012 ft | 438 kts | 175° |
| 2026-05-08 19:01 | 46.74110 | 19.95960 | 34013 ft | 438 kts | 175° |
| 2026-05-08 19:02 | 46.68115 | 19.97371 | 34004 ft | 437 kts | 175° |
| 2026-05-08 19:02 | 46.62092 | 19.98785 | 34004 ft | 439 kts | 175° |
| 2026-05-08 19:03 | 46.56052 | 20.00200 | 34002 ft | 439 kts | 175° |
| 2026-05-08 19:03 | 46.50006 | 20.01614 | 33997 ft | 438 kts | 175° |
| 2026-05-08 19:04 | 46.43982 | 20.03018 | 33998 ft | 439 kts | 174° |
| 2026-05-08 19:04 | 46.37999 | 20.04411 | 33996 ft | 438 kts | 174° |
| 2026-05-08 19:05 | 46.32005 | 20.05803 | 33993 ft | 438 kts | 174° |
| 2026-05-08 19:05 | 46.26000 | 20.07194 | 33995 ft | 439 kts | 174° |
| 2026-05-08 19:06 | 46.19946 | 20.08593 | 33992 ft | 439 kts | 174° |
| 2026-05-08 19:06 | 46.13922 | 20.09842 | 33993 ft | 438 kts | 177° |
| 2026-05-08 19:07 | 46.07879 | 20.10821 | 33989 ft | 438 kts | 176° |
| 2026-05-08 19:07 | 46.01841 | 20.11815 | 34001 ft | 438 kts | 176° |
| 2026-05-08 19:08 | 45.95784 | 20.12810 | 34006 ft | 438 kts | 176° |
| 2026-05-08 19:08 | 45.89739 | 20.13802 | 34006 ft | 438 kts | 176° |
| 2026-05-08 19:09 | 45.83694 | 20.14791 | 34003 ft | 439 kts | 176° |
| 2026-05-08 19:09 | 45.77646 | 20.15778 | 34007 ft | 440 kts | 176° |
| 2026-05-08 19:10 | 45.71581 | 20.16766 | 34004 ft | 440 kts | 176° |
| 2026-05-08 19:10 | 45.65486 | 20.17757 | 34001 ft | 441 kts | 176° |
| 2026-05-08 19:11 | 45.59412 | 20.18742 | 34000 ft | 441 kts | 176° |
| 2026-05-08 19:11 | 45.53350 | 20.19723 | 34000 ft | 441 kts | 176° |
| 2026-05-08 19:12 | 45.47268 | 20.20706 | 34000 ft | 440 kts | 176° |
| 2026-05-08 19:12 | 45.41196 | 20.21684 | 34005 ft | 440 kts | 176° |
| 2026-05-08 19:13 | 45.35104 | 20.22664 | 34009 ft | 440 kts | 176° |
| 2026-05-08 19:13 | 45.29031 | 20.23638 | 34011 ft | 440 kts | 176° |
| 2026-05-08 19:14 | 45.22955 | 20.24611 | 34005 ft | 441 kts | 176° |
| 2026-05-08 19:14 | 45.16886 | 20.25581 | 34008 ft | 442 kts | 176° |
| 2026-05-08 19:15 | 45.10770 | 20.26555 | 34006 ft | 442 kts | 176° |
| 2026-05-08 19:15 | 45.04666 | 20.27527 | 34006 ft | 442 kts | 176° |
| 2026-05-08 19:16 | 44.98544 | 20.28499 | 34005 ft | 441 kts | 176° |
| 2026-05-08 19:16 | 44.92444 | 20.29465 | 33996 ft | 441 kts | 176° |
| 2026-05-08 19:17 | 44.86333 | 20.30431 | 34008 ft | 442 kts | 176° |
| 2026-05-08 19:17 | 44.80221 | 20.31393 | 34010 ft | 443 kts | 175° |
| 2026-05-08 19:18 | 44.74106 | 20.32350 | 34009 ft | 443 kts | 175° |
| 2026-05-08 19:18 | 44.68007 | 20.33301 | 34012 ft | 446 kts | 176° |
| 2026-05-08 19:19 | 44.61847 | 20.34260 | 34010 ft | 445 kts | 176° |
| 2026-05-08 19:19 | 44.55703 | 20.35214 | 34011 ft | 444 kts | 175° |
| 2026-05-08 19:20 | 44.49581 | 20.36164 | 34015 ft | 444 kts | 175° |
| 2026-05-08 19:20 | 44.43471 | 20.37110 | 34016 ft | 444 kts | 175° |
| 2026-05-08 19:21 | 44.37344 | 20.38055 | 34019 ft | 444 kts | 175° |
| 2026-05-08 19:21 | 44.31193 | 20.39003 | 34024 ft | 446 kts | 175° |
| 2026-05-08 19:22 | 44.25018 | 20.39952 | 34030 ft | 448 kts | 175° |
| 2026-05-08 19:22 | 44.18858 | 20.40898 | 34043 ft | 447 kts | 175° |
| 2026-05-08 19:23 | 44.12685 | 20.41843 | 34044 ft | 447 kts | 175° |
| 2026-05-08 19:23 | 44.06508 | 20.42787 | 34044 ft | 446 kts | 175° |
| 2026-05-08 19:24 | 44.00337 | 20.43727 | 34040 ft | 448 kts | 175° |
| 2026-05-08 19:24 | 43.94140 | 20.44670 | 34040 ft | 446 kts | 175° |
| 2026-05-08 19:25 | 43.87973 | 20.45607 | 34041 ft | 446 kts | 175° |
| 2026-05-08 19:25 | 43.81826 | 20.46538 | 34039 ft | 449 kts | 175° |
| 2026-05-08 19:26 | 43.75611 | 20.47478 | 34038 ft | 449 kts | 175° |
| 2026-05-08 19:26 | 43.69442 | 20.48408 | 34038 ft | 448 kts | 175° |
| 2026-05-08 19:27 | 43.63242 | 20.49341 | 34045 ft | 448 kts | 175° |
| 2026-05-08 19:27 | 43.57066 | 20.50270 | 34049 ft | 448 kts | 175° |
| 2026-05-08 19:28 | 43.50857 | 20.51201 | 34051 ft | 448 kts | 175° |
| 2026-05-08 19:28 | 43.44673 | 20.52126 | 34051 ft | 449 kts | 175° |
| 2026-05-08 19:29 | 43.38463 | 20.53053 | 34052 ft | 450 kts | 174° |
| 2026-05-08 19:29 | 43.32304 | 20.53972 | 34047 ft | 438 kts | 175° |
| 2026-05-08 19:30 | 43.26332 | 20.54859 | 34053 ft | 431 kts | 175° |
| 2026-05-08 19:30 | 43.20342 | 20.55748 | 33656 ft | 435 kts | 175° |
| 2026-05-08 19:30 | 43.17359 | 20.56190 | 33195 ft | 434 kts | 175° |
| 2026-05-08 19:31 | 43.14350 | 20.56636 | 32716 ft | 434 kts | 175° |
| 2026-05-08 19:31 | 43.11375 | 20.57076 | 32238 ft | 434 kts | 175° |
| 2026-05-08 19:31 | 43.08351 | 20.57523 | 31759 ft | 436 kts | 175° |
| 2026-05-08 19:31 | 43.05326 | 20.57970 | 31275 ft | 438 kts | 175° |
| 2026-05-08 19:32 | 43.02290 | 20.58487 | 30692 ft | 441 kts | 170° |
| 2026-05-08 19:32 | 42.99332 | 20.59567 | 30349 ft | 443 kts | 161° |
| 2026-05-08 19:32 | 42.96477 | 20.61105 | 29986 ft | 441 kts | 159° |
| 2026-05-08 19:32 | 42.93646 | 20.62623 | 29692 ft | 438 kts | 160° |
| 2026-05-08 19:33 | 42.90836 | 20.64114 | 28901 ft | 428 kts | 160° |
| 2026-05-08 19:33 | 42.88090 | 20.65565 | 28405 ft | 414 kts | 160° |
| 2026-05-08 19:33 | 42.85428 | 20.66967 | 27935 ft | 412 kts | 160° |
| 2026-05-08 19:33 | 42.82750 | 20.68378 | 27475 ft | 413 kts | 160° |
| 2026-05-08 19:34 | 42.80055 | 20.69795 | 27005 ft | 413 kts | 160° |
| 2026-05-08 19:34 | 42.77425 | 20.71178 | 26553 ft | 411 kts | 160° |
| 2026-05-08 19:34 | 42.74760 | 20.72577 | 26098 ft | 409 kts | 160° |
| 2026-05-08 19:34 | 42.72135 | 20.73954 | 25650 ft | 407 kts | 160° |
| 2026-05-08 19:35 | 42.69506 | 20.75332 | 25231 ft | 405 kts | 160° |
| 2026-05-08 19:35 | 42.66867 | 20.76714 | 24785 ft | 402 kts | 160° |
| 2026-05-08 19:35 | 42.64283 | 20.78066 | 24344 ft | 400 kts | 160° |
| 2026-05-08 19:35 | 42.61700 | 20.79417 | 23903 ft | 397 kts | 160° |
| 2026-05-08 19:36 | 42.59134 | 20.80757 | 23461 ft | 395 kts | 160° |
| 2026-05-08 19:36 | 42.56560 | 20.82100 | 23023 ft | 393 kts | 160° |
| 2026-05-08 19:36 | 42.54019 | 20.83425 | 22590 ft | 391 kts | 160° |
| 2026-05-08 19:36 | 42.51525 | 20.84724 | 22166 ft | 389 kts | 160° |
| 2026-05-08 19:37 | 42.49008 | 20.86034 | 21749 ft | 386 kts | 160° |
| 2026-05-08 19:37 | 42.46500 | 20.87338 | 21324 ft | 384 kts | 160° |
| 2026-05-08 19:37 | 42.44019 | 20.88627 | 20903 ft | 381 kts | 160° |
| 2026-05-08 19:37 | 42.41563 | 20.89902 | 20487 ft | 378 kts | 160° |
| 2026-05-08 19:38 | 42.39185 | 20.91135 | 20084 ft | 376 kts | 160° |
| 2026-05-08 19:38 | 42.36759 | 20.92393 | 19675 ft | 374 kts | 160° |
| 2026-05-08 19:38 | 42.34319 | 20.93656 | 19265 ft | 371 kts | 160° |
| 2026-05-08 19:38 | 42.31910 | 20.94903 | 18861 ft | 369 kts | 160° |
| 2026-05-08 19:39 | 42.29544 | 20.96126 | 18485 ft | 367 kts | 160° |
| 2026-05-08 19:39 | 42.27163 | 20.97356 | 18065 ft | 365 kts | 160° |
| 2026-05-08 19:39 | 42.24792 | 20.98580 | 17633 ft | 363 kts | 160° |
| 2026-05-08 19:39 | 42.22448 | 20.99789 | 17193 ft | 359 kts | 160° |
| 2026-05-08 19:40 | 42.20144 | 21.00976 | 16793 ft | 356 kts | 160° |
| 2026-05-08 19:40 | 42.17816 | 21.02175 | 16427 ft | 355 kts | 160° |
| 2026-05-08 19:40 | 42.15523 | 21.03355 | 16076 ft | 354 kts | 160° |
| 2026-05-08 19:40 | 42.13235 | 21.04549 | 15678 ft | 353 kts | 157° |
| 2026-05-08 19:41 | 42.11285 | 21.06506 | 15301 ft | 354 kts | 131° |
| 2026-05-08 19:41 | 42.10088 | 21.09364 | 14880 ft | 354 kts | 113° |
| 2026-05-08 19:41 | 42.09151 | 21.12415 | 14465 ft | 353 kts | 113° |
| 2026-05-08 19:41 | 42.08216 | 21.15463 | 14066 ft | 350 kts | 113° |
| 2026-05-08 19:42 | 42.07297 | 21.18459 | 13678 ft | 348 kts | 113° |
| 2026-05-08 19:42 | 42.06372 | 21.21473 | 13290 ft | 346 kts | 113° |
| 2026-05-08 19:42 | 42.05459 | 21.24443 | 12908 ft | 344 kts | 113° |
| 2026-05-08 19:42 | 42.04549 | 21.27401 | 12530 ft | 342 kts | 113° |
| 2026-05-08 19:43 | 42.03645 | 21.30337 | 12154 ft | 340 kts | 113° |
| 2026-05-08 19:43 | 42.02741 | 21.33270 | 11774 ft | 337 kts | 113° |
| 2026-05-08 19:43 | 42.01853 | 21.36148 | 11328 ft | 331 kts | 113° |
| 2026-05-08 19:43 | 42.00984 | 21.38962 | 10957 ft | 321 kts | 114° |
| 2026-05-08 19:44 | 42.00145 | 21.41674 | 10605 ft | 312 kts | 114° |
| 2026-05-08 19:44 | 41.99332 | 21.44301 | 10262 ft | 303 kts | 114° |
| 2026-05-08 19:44 | 41.98531 | 21.46884 | 9940 ft | 295 kts | 113° |
| 2026-05-08 19:44 | 41.97757 | 21.49379 | 9621 ft | 291 kts | 114° |
| 2026-05-08 19:45 | 41.96982 | 21.51873 | 9297 ft | 290 kts | 113° |
| 2026-05-08 19:45 | 41.96201 | 21.54383 | 8986 ft | 286 kts | 113° |
| 2026-05-08 19:45 | 41.95454 | 21.56788 | 8660 ft | 276 kts | 114° |
| 2026-05-08 19:45 | 41.94731 | 21.59110 | 8375 ft | 268 kts | 114° |
| 2026-05-08 19:46 | 41.94013 | 21.61371 | 8079 ft | 259 kts | 119° |
| 2026-05-08 19:46 | 41.92793 | 21.63026 | 7820 ft | 244 kts | 155° |
| 2026-05-08 19:46 | 41.89663 | 21.64344 | 7308 ft | 230 kts | 165° |
| 2026-05-08 19:47 | 41.88149 | 21.64897 | 7061 ft | 227 kts | 165° |
| 2026-05-08 19:47 | 41.86618 | 21.65443 | 6820 ft | 227 kts | 166° |
| 2026-05-08 19:47 | 41.85111 | 21.65976 | 6639 ft | 220 kts | 167° |
| 2026-05-08 19:47 | 41.83667 | 21.66480 | 6400 ft | 209 kts | 166° |
| 2026-05-08 19:48 | 41.82332 | 21.67160 | 6091 ft | 204 kts | 142° |
| 2026-05-08 19:48 | 41.81504 | 21.68607 | 5914 ft | 195 kts | 124° |
| 2026-05-08 19:48 | 41.80792 | 21.70132 | 5685 ft | 190 kts | 124° |
| 2026-05-08 19:48 | 41.80094 | 21.71640 | 5478 ft | 187 kts | 124° |
| 2026-05-08 19:49 | 41.79148 | 21.72696 | 5249 ft | 176 kts | 166° |
| 2026-05-08 19:49 | 41.78003 | 21.72526 | 5041 ft | 171 kts | 208° |
| 2026-05-08 19:49 | 41.77277 | 21.71298 | 4698 ft | 174 kts | 255° |
| 2026-05-08 19:49 | 41.77440 | 21.69742 | 4504 ft | 173 kts | 301° |
| 2026-05-08 19:50 | 41.78373 | 21.68782 | 4341 ft | 175 kts | 346° |
| 2026-05-08 19:50 | 41.79537 | 21.68516 | 4256 ft | 166 kts | 342° |
| 2026-05-08 19:50 | 41.80606 | 21.67954 | 3990 ft | 164 kts | 339° |
| 2026-05-08 19:50 | 41.81665 | 21.67448 | 3745 ft | 161 kts | 341° |
| 2026-05-08 19:51 | 41.82727 | 21.66984 | 3595 ft | 161 kts | 340° |
| 2026-05-08 19:51 | 41.83779 | 21.66503 | 3317 ft | 153 kts | 343° |
| 2026-05-08 19:51 | 41.84766 | 21.66118 | 3063 ft | 141 kts | 344° |
| 2026-05-08 19:51 | 41.85672 | 21.65789 | 2839 ft | 130 kts | 345° |
| 2026-05-08 19:52 | 41.86532 | 21.65487 | 2654 ft | 128 kts | 346° |
| 2026-05-08 19:52 | 41.87403 | 21.65183 | 2481 ft | 129 kts | 346° |
| 2026-05-08 19:52 | 41.88264 | 21.64884 | 2300 ft | 129 kts | 346° |
| 2026-05-08 19:52 | 41.89143 | 21.64579 | 2106 ft | 129 kts | 346° |
| 2026-05-08 19:53 | 41.90002 | 21.64281 | 1917 ft | 129 kts | 346° |
| 2026-05-08 19:53 | 41.90888 | 21.63973 | 1723 ft | 131 kts | 347° |
| 2026-05-08 19:53 | 41.91770 | 21.63667 | 1530 ft | 132 kts | 347° |
| 2026-05-08 19:53 | 41.92658 | 21.63359 | 1335 ft | 133 kts | 347° |
| 2026-05-08 19:54 | 41.93560 | 21.63047 | 1137 ft | 133 kts | 348° |
| 2026-05-08 19:54 | 41.94476 | 21.62722 | 941 ft | 136 kts | 347° |
| 2026-05-08 19:54 | 41.95384 | 21.62409 | 778 ft | 131 kts | 348° |
| 2026-05-08 19:54 | 41.96173 | 21.62142 | 774 ft | 95 kts | 345° |
| 2026-05-08 19:55 | 41.96661 | 21.61973 | 776 ft | 66 kts | 347° |
| 2026-05-08 19:55 | 41.96987 | 21.61863 | 778 ft | 9 kts | 10° |
| 2026-05-08 19:55 | 41.97004 | 21.61942 | 779 ft | 13 kts | 117° |
| 2026-05-08 19:55 | 41.96956 | 21.62032 | 781 ft | 8 kts | 129° |
| 2026-05-08 19:56 | 41.96920 | 21.62091 | 782 ft | 8 kts | 128° |
| 2026-05-08 19:56 | 41.96892 | 21.62139 | 783 ft | 4 kts | 130° |
| 2026-05-08 19:56 | 41.96865 | 21.62165 | 784 ft | 5 kts | 152° |
| 2026-05-08 19:56 | 41.96822 | 21.62185 | 784 ft | 7 kts | 166° |
| 2026-05-08 19:57 | 41.96768 | 21.62203 | 784 ft | 5 kts | 166° |
| 2026-05-08 19:57 | 41.96728 | 21.62216 | 784 ft | 7 kts | 165° |
| 2026-05-08 19:57 | 41.96665 | 21.62238 | 784 ft | 10 kts | 165° |
| 2026-05-08 19:57 | 41.96586 | 21.62265 | 783 ft | 12 kts | 167° |
| 2026-05-08 19:58 | 41.96496 | 21.62295 | 783 ft | 13 kts | 166° |
| 2026-05-08 19:58 | 41.96394 | 21.62331 | 782 ft | 16 kts | 164° |
| 2026-05-08 19:58 | 41.96281 | 21.62377 | 782 ft | 17 kts | 162° |
| 2026-05-08 19:58 | 41.96154 | 21.62416 | 781 ft | 19 kts | 166° |
| 2026-05-08 19:59 | 41.96059 | 21.62448 | 780 ft | 14 kts | 165° |
| 2026-05-08 19:59 | 41.95974 | 21.62479 | 780 ft | 10 kts | 165° |
| 2026-05-08 19:59 | 41.95893 | 21.62508 | 779 ft | 13 kts | 166° |
| 2026-05-08 19:59 | 41.95821 | 21.62534 | 778 ft | 8 kts | 167° |
| 2026-05-08 20:00 | 41.95758 | 21.62556 | 778 ft | 10 kts | 164° |
| 2026-05-08 20:00 | 41.95687 | 21.62581 | 777 ft | 7 kts | 166° |
| 2026-05-08 20:00 | 41.95643 | 21.62597 | 776 ft | 5 kts | 165° |
| 2026-05-08 20:00 | 41.95616 | 21.62606 | 776 ft | 5 kts | 165° |
| 2026-05-08 20:01 | 41.95572 | 21.62622 | 775 ft | 4 kts | 166° |
| 2026-05-08 20:01 | 41.95560 | 21.62652 | 776 ft | 4 kts | 85° |
| 2026-05-08 20:01 | 41.95568 | 21.62696 | 777 ft | 4 kts | 74° |
| 2026-05-08 20:01 | 41.95575 | 21.62730 | 778 ft | 3 kts | 75° |
| 2026-05-08 20:02 | 41.95575 | 21.62733 | 778 ft | 0 kts | 75° |
| 2026-05-08 20:02 | 41.95577 | 21.62741 | 778 ft | 2 kts | 75° |
| 2026-05-08 20:02 | 41.95581 | 21.62764 | 778 ft | 0 kts | 75° |
| 2026-05-08 20:03 | 41.95581 | 21.62763 | 778 ft | 0 kts | 75° |
| 2026-05-08 20:03 | 41.95581 | 21.62762 | 778 ft | 0 kts | 75° |